Time;durP1;ratioP1;P1;durP2;ratioP2;P2;SDS_P1;SDS_P2;PMS_P1;PMS_P2;Temp;Humidity;BMP_temperature;BMP_pressure;BME280_temperature;BME280_humidity;BME280_pressure;Samples;Min_cycle;Max_cycle;Signal;HPM_P1;HPM_P2
2024/01/15 00:01:34;;;;;;;8.27;1.08;;;2.90;99.90;;;;;;5062406;28;20032;-78
2024/01/15 00:04:00;;;;;;;3.78;1.10;;;2.80;99.90;;;;;;5065196;28;20017;-78
2024/01/15 00:06:26;;;;;;;5.03;1.00;;;2.80;99.90;;;;;;5051978;28;20032;-78
2024/01/15 00:08:52;;;;;;;10.43;1.58;;;2.70;99.90;;;;;;5071860;28;20036;-78
2024/01/15 00:11:18;;;;;;;7.07;0.90;;;2.70;99.90;;;;;;5063412;28;20036;-78
2024/01/15 00:13:43;;;;;;;8.00;1.33;;;2.70;99.90;;;;;;5064360;28;20474;-78
2024/01/15 00:16:10;;;;;;;6.93;1.10;;;2.70;99.90;;;;;;5071976;28;20036;-78
2024/01/15 00:18:35;;;;;;;3.92;0.90;;;2.70;99.90;;;;;;5071752;28;20047;-78
2024/01/15 00:21:01;;;;;;;4.85;1.02;;;2.70;99.90;;;;;;5053150;28;20478;-78
2024/01/15 00:23:27;;;;;;;6.95;0.85;;;2.60;99.90;;;;;;5061144;28;20075;-78
2024/01/15 00:25:52;;;;;;;5.47;1.00;;;2.70;99.90;;;;;;5072145;28;20036;-78
2024/01/15 00:28:18;;;;;;;4.50;1.10;;;2.70;99.90;;;;;;5071516;28;20047;-78
2024/01/15 00:30:44;;;;;;;9.32;1.27;;;2.60;99.90;;;;;;5070614;28;20029;-78
2024/01/15 00:33:12;;;;;;;7.88;1.35;;;2.60;99.90;;;;;;5069874;28;20131;-78
2024/01/15 00:35:37;;;;;;;8.60;1.35;;;2.60;99.90;;;;;;5058776;28;20149;-78
2024/01/15 00:38:03;;;;;;;7.53;1.20;;;2.50;99.90;;;;;;5054953;28;20115;-78
2024/01/15 00:40:29;;;;;;;6.75;1.23;;;2.50;99.90;;;;;;5070554;28;20117;-78
2024/01/15 00:42:54;;;;;;;7.47;1.35;;;2.50;99.90;;;;;;5069660;28;20029;-78
2024/01/15 00:45:20;;;;;;;9.90;1.25;;;2.50;99.90;;;;;;5071653;28;20060;-78
2024/01/15 00:47:46;;;;;;;13.07;1.27;;;2.40;99.90;;;;;;5070949;28;20048;-78
2024/01/15 00:50:11;;;;;;;14.55;1.65;;;2.40;99.90;;;;;;5071719;28;20489;-78
2024/01/15 00:52:37;;;;;;;7.03;1.10;;;2.40;99.90;;;;;;5059531;28;20049;-78
2024/01/15 00:55:03;;;;;;;7.50;1.30;;;2.40;99.90;;;;;;5067942;28;20462;-78
2024/01/15 00:57:29;;;;;;;9.57;1.30;;;2.40;99.90;;;;;;5070798;28;20410;-78
2024/01/15 00:59:54;;;;;;;7.95;1.65;;;2.40;99.90;;;;;;5056630;28;20038;-78
2024/01/15 01:02:20;;;;;;;9.93;1.48;;;2.40;99.90;;;;;;5070777;28;20032;-78
2024/01/15 01:04:45;;;;;;;7.22;1.35;;;2.40;99.90;;;;;;5057734;28;20053;-78
2024/01/15 01:07:11;;;;;;;11.25;1.20;;;2.40;99.90;;;;;;5064872;28;20048;-78
2024/01/15 01:09:37;;;;;;;6.68;1.20;;;2.40;99.90;;;;;;5071206;28;20025;-78
2024/01/15 01:12:03;;;;;;;10.50;1.50;;;2.40;99.90;;;;;;5070606;28;20023;-78
2024/01/15 01:14:28;;;;;;;6.68;1.15;;;2.40;99.90;;;;;;5065964;28;20059;-78
2024/01/15 01:16:54;;;;;;;7.95;1.13;;;2.40;99.90;;;;;;5050493;28;20068;-78
2024/01/15 01:19:20;;;;;;;7.53;0.98;;;2.40;99.90;;;;;;5065461;28;20032;-78
2024/01/15 01:21:45;;;;;;;9.80;1.50;;;2.40;99.90;;;;;;5060017;28;20588;-78
2024/01/15 01:24:11;;;;;;;9.65;1.55;;;2.40;99.90;;;;;;5053939;28;20066;-78
2024/01/15 01:26:36;;;;;;;10.38;1.48;;;2.40;99.90;;;;;;5056886;28;20115;-78
2024/01/15 01:29:02;;;;;;;10.25;1.70;;;2.40;99.90;;;;;;5071108;28;20025;-78
2024/01/15 01:31:28;;;;;;;10.57;1.38;;;2.40;99.90;;;;;;5065324;28;20017;-78
2024/01/15 01:33:53;;;;;;;7.03;1.38;;;2.40;99.90;;;;;;5061735;28;20024;-78
2024/01/15 01:36:19;;;;;;;8.18;1.27;;;2.40;99.90;;;;;;5070838;28;20537;-78
2024/01/15 01:38:45;;;;;;;11.40;1.45;;;2.40;99.90;;;;;;5069906;28;20142;-78
2024/01/15 01:41:10;;;;;;;15.35;1.73;;;2.30;99.90;;;;;;5070701;28;20024;-78
2024/01/15 01:43:36;;;;;;;9.07;1.75;;;2.30;99.90;;;;;;5068722;28;20493;-78
2024/01/15 01:46:03;;;;;;;8.15;1.38;;;2.30;99.90;;;;;;5070551;28;20229;-78
2024/01/15 01:48:30;;;;;;;5.40;1.42;;;2.30;99.90;;;;;;5050484;28;20025;-78
2024/01/15 01:51:01;;;;;;;12.45;1.83;;;2.30;99.90;;;;;;5061780;28;20085;-78
2024/01/15 01:53:29;;;;;;;7.95;1.58;;;2.20;99.90;;;;;;5065486;28;20107;-78
2024/01/15 01:55:57;;;;;;;8.30;1.75;;;2.20;99.90;;;;;;5050536;28;20508;-78
2024/01/15 01:58:22;;;;;;;17.15;2.00;;;2.20;99.90;;;;;;5063784;28;20047;-78
2024/01/15 02:00:49;;;;;;;18.13;2.70;;;2.20;99.90;;;;;;5043811;28;20380;-78
2024/01/15 02:03:15;;;;;;;9.60;2.13;;;2.20;99.90;;;;;;5064458;28;20032;-78
2024/01/15 02:05:44;;;;;;;7.82;2.05;;;2.20;99.90;;;;;;5057642;28;20016;-78
2024/01/15 02:08:10;;;;;;;10.05;2.05;;;2.20;99.90;;;;;;5069717;28;20029;-78
2024/01/15 02:10:36;;;;;;;15.13;2.20;;;2.20;99.90;;;;;;5070380;28;20039;-78
2024/01/15 02:13:02;;;;;;;10.95;2.22;;;2.20;99.90;;;;;;5069766;28;20021;-79
2024/01/15 02:15:28;;;;;;;12.23;2.13;;;2.20;99.90;;;;;;5070262;28;20021;-78
2024/01/15 02:17:58;;;;;;;10.30;1.80;;;2.20;99.90;;;;;;5069587;28;20177;-78
2024/01/15 02:20:24;;;;;;;6.97;1.60;;;2.20;99.90;;;;;;5057905;28;20020;-78
2024/01/15 02:22:50;;;;;;;13.32;2.08;;;2.10;99.90;;;;;;5068278;28;20263;-78
2024/01/15 02:25:15;;;;;;;10.80;1.63;;;2.20;99.90;;;;;;5058491;28;20029;-78
2024/01/15 02:27:43;;;;;;;8.90;1.80;;;2.20;99.90;;;;;;5065928;28;20516;-78
2024/01/15 02:30:11;;;;;;;7.85;1.50;;;2.10;99.90;;;;;;5070319;28;20024;-78
2024/01/15 02:32:37;;;;;;;11.65;1.55;;;2.20;99.90;;;;;;5069612;28;20508;-78
2024/01/15 02:35:03;;;;;;;8.60;2.22;;;2.10;99.90;;;;;;5063151;28;20017;-78
2024/01/15 02:37:28;;;;;;;12.85;1.67;;;2.10;99.90;;;;;;5062457;28;20024;-78
2024/01/15 02:39:54;;;;;;;9.80;1.83;;;2.10;99.90;;;;;;5055918;28;20024;-78
2024/01/15 02:42:19;;;;;;;13.68;1.33;;;2.10;99.90;;;;;;5069351;28;20056;-78
2024/01/15 02:44:45;;;;;;;10.93;1.65;;;2.10;99.90;;;;;;5070017;28;20474;-78
2024/01/15 02:47:10;;;;;;;10.68;1.88;;;2.10;99.90;;;;;;5069558;28;20029;-78
2024/01/15 02:49:36;;;;;;;14.13;2.45;;;2.10;99.90;;;;;;5068634;28;20135;-78
2024/01/15 02:52:02;;;;;;;12.38;2.33;;;2.10;99.90;;;;;;5069462;28;20422;-79
2024/01/15 02:54:28;;;;;;;10.35;1.88;;;2.10;99.90;;;;;;5055857;28;20094;-78
2024/01/15 02:56:53;;;;;;;6.68;1.20;;;2.10;99.90;;;;;;5049461;28;20413;-78
2024/01/15 02:59:19;;;;;;;13.07;2.17;;;2.10;99.90;;;;;;5054176;28;20038;-78
2024/01/15 03:01:44;;;;;;;9.60;1.90;;;2.10;99.90;;;;;;5049122;28;20068;-78
2024/01/15 03:04:10;;;;;;;19.40;2.33;;;2.20;99.90;;;;;;5072962;28;20099;-78
2024/01/15 03:06:36;;;;;;;12.18;1.85;;;2.20;99.90;;;;;;5073535;28;20035;-78
2024/01/15 03:09:03;;;;;;;15.27;1.60;;;2.20;99.90;;;;;;5072845;28;20068;-78
2024/01/15 03:11:29;;;;;;;10.57;1.45;;;2.20;99.90;;;;;;5072036;28;20569;-78
2024/01/15 03:13:54;;;;;;;11.45;1.67;;;2.20;99.90;;;;;;5072573;28;20040;-78
2024/01/15 03:16:20;;;;;;;14.88;1.80;;;2.20;99.90;;;;;;5071993;28;20028;-78
2024/01/15 03:18:46;;;;;;;18.00;2.45;;;2.30;99.90;;;;;;5072688;28;20394;-78
2024/01/15 03:21:12;;;;;;;13.68;2.92;;;2.20;99.90;;;;;;5059225;28;20035;-78
2024/01/15 03:23:37;;;;;;;10.82;1.38;;;2.30;99.90;;;;;;5072851;28;20020;-78
2024/01/15 03:26:03;;;;;;;9.15;1.55;;;2.20;99.90;;;;;;5071964;28;20461;-78
2024/01/15 03:28:30;;;;;;;10.57;1.67;;;2.20;99.90;;;;;;5072943;28;20115;-78
2024/01/15 03:30:56;;;;;;;9.55;1.50;;;2.30;99.90;;;;;;5073159;28;20390;-78
2024/01/15 03:33:21;;;;;;;10.40;2.13;;;2.20;99.90;;;;;;5072567;28;20027;-78
2024/01/15 03:35:47;;;;;;;10.10;1.30;;;2.20;99.90;;;;;;5072931;28;20036;-78
2024/01/15 03:38:13;;;;;;;9.63;1.05;;;2.20;99.90;;;;;;5067254;28;20482;-78
2024/01/15 03:40:38;;;;;;;6.70;1.30;;;2.20;99.90;;;;;;5063960;28;20065;-78
2024/01/15 03:43:04;;;;;;;9.40;1.55;;;2.10;99.90;;;;;;5072124;28;20040;-78
2024/01/15 03:45:29;;;;;;;9.27;1.38;;;2.20;99.90;;;;;;5073117;28;20034;-78
2024/01/15 03:47:55;;;;;;;9.90;1.65;;;2.10;99.90;;;;;;5072453;28;20024;-78
2024/01/15 03:50:20;;;;;;;10.75;1.15;;;2.10;99.90;;;;;;5073077;28;20115;-78
2024/01/15 03:52:46;;;;;;;10.05;1.60;;;2.10;99.90;;;;;;5072198;28;20024;-78
2024/01/15 03:55:12;;;;;;;7.22;1.33;;;2.10;99.90;;;;;;5053732;28;20029;-78
2024/01/15 03:57:37;;;;;;;11.57;1.10;;;2.10;99.90;;;;;;5062561;28;20158;-78
2024/01/15 04:00:04;;;;;;;14.38;1.30;;;2.10;99.90;;;;;;5059260;28;20044;-78
2024/01/15 04:02:29;;;;;;;9.73;1.92;;;2.10;99.90;;;;;;5072063;28;20016;-78
2024/01/15 04:04:55;;;;;;;13.75;2.28;;;2.00;99.90;;;;;;5071171;28;20459;-78
2024/01/15 04:07:20;;;;;;;11.77;1.58;;;2.10;99.90;;;;;;5067926;28;20028;-78
2024/01/15 04:09:46;;;;;;;14.80;2.25;;;2.10;99.90;;;;;;5072498;28;20465;-78
2024/01/15 04:12:12;;;;;;;9.68;0.98;;;2.00;99.90;;;;;;5071768;28;20416;-78
2024/01/15 04:14:37;;;;;;;6.30;0.98;;;2.10;99.90;;;;;;5071487;28;20474;-78
2024/01/15 04:17:03;;;;;;;10.05;2.03;;;2.10;99.90;;;;;;5070837;28;20389;-78
2024/01/15 04:19:29;;;;;;;16.80;1.40;;;2.10;99.90;;;;;;5056086;28;20482;-78
2024/01/15 04:21:57;;;;;;;8.95;1.10;;;2.10;99.90;;;;;;5072131;28;20667;-78
2024/01/15 04:24:23;;;;;;;10.80;0.98;;;2.10;99.90;;;;;;5070003;28;20090;-77
2024/01/15 04:26:48;;;;;;;10.15;1.40;;;2.20;99.90;;;;;;5072618;28;20024;-80
2024/01/15 04:29:14;;;;;;;11.50;1.52;;;2.20;99.90;;;;;;5071383;28;20436;-80
2024/01/15 04:31:40;;;;;;;8.18;0.95;;;2.10;99.90;;;;;;5072013;28;20024;-79
2024/01/15 04:34:05;;;;;;;12.93;1.20;;;2.10;99.90;;;;;;5071386;28;20032;-80
2024/01/15 04:36:31;;;;;;;9.63;1.42;;;2.20;99.90;;;;;;5071886;28;20470;-80
2024/01/15 04:38:56;;;;;;;9.68;1.13;;;2.20;99.90;;;;;;5069865;28;20028;-79
2024/01/15 04:41:22;;;;;;;5.85;1.60;;;2.20;99.90;;;;;;5067337;28;20367;-79
2024/01/15 04:43:48;;;;;;;11.98;1.65;;;2.20;99.90;;;;;;5060409;28;20100;-79
2024/01/15 04:46:14;;;;;;;10.80;1.10;;;2.20;99.90;;;;;;5057670;28;20098;-79
2024/01/15 04:48:39;;;;;;;7.75;1.15;;;2.20;99.90;;;;;;5071002;28;20024;-79
2024/01/15 04:51:06;;;;;;;10.85;1.70;;;2.10;99.90;;;;;;5072049;28;20024;-78
2024/01/15 04:53:32;;;;;;;14.10;1.83;;;2.10;99.90;;;;;;5065831;28;20017;-79
2024/01/15 04:55:58;;;;;;;12.20;1.85;;;2.10;99.90;;;;;;5062580;28;20039;-78
2024/01/15 04:58:26;;;;;;;10.60;1.30;;;2.10;99.90;;;;;;5070716;28;20360;-79
2024/01/15 05:00:52;;;;;;;18.27;2.63;;;2.00;99.90;;;;;;5047238;28;20049;-79
2024/01/15 05:03:17;;;;;;;5.65;1.55;;;2.00;99.90;;;;;;5066314;28;20027;-79
2024/01/15 05:05:43;;;;;;;12.98;2.25;;;2.10;99.90;;;;;;5071453;28;20466;-79
2024/01/15 05:08:09;;;;;;;13.50;2.25;;;2.00;99.90;;;;;;5066833;28;20532;-79
2024/01/15 05:10:35;;;;;;;8.07;1.75;;;2.00;99.90;;;;;;5069953;28;20035;-79
2024/01/15 05:13:00;;;;;;;14.73;2.28;;;2.00;99.90;;;;;;5050948;28;20390;-79
2024/01/15 05:15:26;;;;;;;14.73;2.10;;;2.00;99.90;;;;;;5065054;28;20162;-79
2024/01/15 05:17:52;;;;;;;16.20;3.03;;;2.00;99.90;;;;;;5070531;28;20479;-79
2024/01/15 05:20:17;;;;;;;11.50;2.55;;;2.00;99.90;;;;;;5059634;28;20112;-79
2024/01/15 05:22:43;;;;;;;11.45;2.60;;;2.00;99.90;;;;;;5064447;28;20027;-79
2024/01/15 05:25:09;;;;;;;8.18;2.25;;;1.90;99.90;;;;;;5059922;28;20410;-79
2024/01/15 05:27:34;;;;;;;15.18;3.05;;;2.00;99.90;;;;;;5070166;28;20485;-79
2024/01/15 05:30:00;;;;;;;9.85;2.88;;;2.00;99.90;;;;;;5063711;28;20025;-79
2024/01/15 05:32:25;;;;;;;12.32;3.00;;;2.00;99.90;;;;;;5050314;28;20029;-79
2024/01/15 05:34:51;;;;;;;12.90;2.50;;;1.90;99.90;;;;;;5055995;28;20039;-79
2024/01/15 05:37:17;;;;;;;13.25;2.60;;;1.90;99.90;;;;;;5070759;28;20508;-79
2024/01/15 05:39:42;;;;;;;11.85;2.97;;;1.90;99.90;;;;;;5070215;28;20020;-79
2024/01/15 05:42:08;;;;;;;12.68;2.28;;;1.90;99.90;;;;;;5070827;28;20059;-79
2024/01/15 05:44:34;;;;;;;7.20;2.10;;;1.90;99.90;;;;;;5055027;28;20044;-79
2024/01/15 05:46:59;;;;;;;10.75;1.85;;;1.90;99.90;;;;;;5058100;28;20013;-78
2024/01/15 05:49:25;;;;;;;8.43;2.10;;;2.00;99.90;;;;;;5069956;28;20474;-79
2024/01/15 05:51:51;;;;;;;5.97;1.88;;;2.00;99.90;;;;;;5070552;28;20111;-79
2024/01/15 05:54:19;;;;;;;6.93;1.67;;;2.00;99.90;;;;;;5068756;28;20029;-79
2024/01/15 05:56:45;;;;;;;7.32;1.75;;;2.00;99.90;;;;;;5069210;28;20077;-79
2024/01/15 05:59:10;;;;;;;13.75;2.20;;;2.00;99.90;;;;;;5064435;28;20040;-79
2024/01/15 06:01:36;;;;;;;7.03;2.03;;;2.00;99.90;;;;;;5060251;28;20091;-78
2024/01/15 06:04:02;;;;;;;12.70;1.83;;;2.00;99.90;;;;;;5069978;28;20032;-79
2024/01/15 06:06:27;;;;;;;7.45;1.80;;;2.00;99.90;;;;;;5070510;28;20016;-80
2024/01/15 06:08:53;;;;;;;8.55;2.05;;;2.00;99.90;;;;;;5068242;28;20023;-80
2024/01/15 06:11:19;;;;;;;8.00;1.55;;;2.00;99.90;;;;;;5057988;28;20296;-79
2024/01/15 06:13:45;;;;;;;5.05;1.60;;;2.00;99.90;;;;;;5070233;28;20478;-79
2024/01/15 06:16:16;;;;;;;6.32;1.70;;;2.10;99.90;;;;;;5070416;28;20032;-79
2024/01/15 06:18:41;;;;;;;10.30;2.10;;;2.10;99.90;;;;;;5069809;28;20020;-79
2024/01/15 06:21:07;;;;;;;7.28;1.60;;;2.10;99.90;;;;;;5056319;28;20026;-79
2024/01/15 06:23:33;;;;;;;3.92;1.50;;;2.10;99.90;;;;;;5064962;28;20115;-79
2024/01/15 06:25:58;;;;;;;3.92;1.38;;;2.10;99.90;;;;;;5034816;28;20520;-79
2024/01/15 06:28:24;;;;;;;7.22;2.00;;;2.10;99.90;;;;;;5070001;28;20116;-79
2024/01/15 06:30:50;;;;;;;9.13;2.00;;;2.20;99.90;;;;;;5043636;28;20053;-79
2024/01/15 06:33:15;;;;;;;6.47;2.00;;;2.20;99.90;;;;;;5062153;28;20536;-79
2024/01/15 06:35:41;;;;;;;4.35;2.10;;;2.20;99.90;;;;;;5062778;28;20082;-79
2024/01/15 06:38:07;;;;;;;7.63;2.20;;;2.20;99.90;;;;;;5073541;28;20040;-79
2024/01/15 06:40:32;;;;;;;6.93;2.95;;;2.20;99.90;;;;;;5074813;28;20055;-80
2024/01/15 06:42:58;;;;;;;12.00;3.70;;;2.20;99.90;;;;;;5067850;28;20025;-79
2024/01/15 06:45:23;;;;;;;8.45;3.42;;;2.20;99.90;;;;;;5072946;28;20035;-79
2024/01/15 06:47:49;;;;;;;8.70;3.90;;;2.20;99.90;;;;;;5072154;28;20055;-80
2024/01/15 06:50:15;;;;;;;9.10;3.80;;;2.20;99.90;;;;;;5072927;28;20029;-79
2024/01/15 06:52:40;;;;;;;9.32;4.40;;;2.20;99.90;;;;;;5072266;28;20039;-80
2024/01/15 06:55:06;;;;;;;11.27;4.38;;;2.10;99.90;;;;;;5069006;28;20033;-81
2024/01/15 06:57:32;;;;;;;11.70;4.35;;;2.20;99.90;;;;;;5040033;28;20049;-82
2024/01/15 06:59:58;;;;;;;7.80;4.60;;;2.20;99.90;;;;;;5039288;28;20507;-81
2024/01/15 07:02:23;;;;;;;10.93;4.53;;;2.20;99.90;;;;;;5034801;28;20027;-81
2024/01/15 07:04:49;;;;;;;11.82;4.80;;;2.10;99.90;;;;;;5057371;28;20028;-81
2024/01/15 07:07:15;;;;;;;14.05;5.20;;;2.10;99.90;;;;;;5060613;28;20127;-81
2024/01/15 07:09:41;;;;;;;13.38;5.53;;;2.00;99.90;;;;;;5043414;28;20025;-81
2024/01/15 07:12:06;;;;;;;16.77;7.15;;;1.90;99.90;;;;;;5042622;28;20034;-82
2024/01/15 07:14:32;;;;;;;14.02;7.00;;;1.90;99.90;;;;;;5050338;28;20505;-82
2024/01/15 07:16:58;;;;;;;16.23;7.82;;;1.80;99.90;;;;;;5061432;28;20075;-82
2024/01/15 07:19:23;;;;;;;16.95;7.47;;;1.80;99.90;;;;;;5047702;28;20039;-83
2024/01/15 07:21:49;;;;;;;12.93;8.15;;;1.80;99.90;;;;;;5064557;22;20040;-83
2024/01/15 07:24:15;;;;;;;16.90;8.63;;;1.80;99.90;;;;;;5069213;28;20028;-82
2024/01/15 07:26:40;;;;;;;14.80;8.15;;;1.80;99.90;;;;;;5057881;28;20025;-83
2024/01/15 07:29:06;;;;;;;11.65;7.28;;;1.80;99.90;;;;;;5071962;28;20516;-83
2024/01/15 07:31:32;;;;;;;13.70;8.05;;;1.80;99.90;;;;;;5065233;28;20032;-83
2024/01/15 07:33:58;;;;;;;15.27;8.43;;;1.80;99.90;;;;;;5066584;28;20078;-83
2024/01/15 07:36:23;;;;;;;18.17;9.43;;;1.80;99.90;;;;;;5073347;28;20425;-83
2024/01/15 07:38:49;;;;;;;15.82;7.95;;;1.70;99.90;;;;;;5071571;28;20033;-83
2024/01/15 07:41:15;;;;;;;16.60;9.18;;;1.70;99.90;;;;;;5050907;28;20199;-84
2024/01/15 07:43:40;;;;;;;14.90;8.90;;;1.70;99.90;;;;;;5051283;28;20382;-84
2024/01/15 07:46:07;;;;;;;14.48;8.27;;;1.70;99.90;;;;;;5069809;28;20029;-84
2024/01/15 07:48:32;;;;;;;13.68;7.78;;;1.70;99.90;;;;;;5063886;28;20037;-85
2024/01/15 07:50:58;;;;;;;13.15;7.13;;;1.80;99.90;;;;;;5065403;28;20077;-85
2024/01/15 07:53:24;;;;;;;12.25;7.22;;;1.80;99.90;;;;;;5068894;28;20043;-84
2024/01/15 07:55:49;;;;;;;10.38;5.40;;;1.80;99.90;;;;;;5070904;28;20024;-84
2024/01/15 07:58:15;;;;;;;11.18;5.35;;;1.80;99.90;;;;;;5064306;28;20482;-85
2024/01/15 08:00:41;;;;;;;12.02;5.80;;;1.80;99.90;;;;;;5049381;28;20513;-85
2024/01/15 08:03:06;;;;;;;10.52;4.97;;;1.80;99.90;;;;;;5050350;28;20032;-86
2024/01/15 08:05:32;;;;;;;7.10;4.28;;;1.80;99.90;;;;;;5052317;28;20108;-83
2024/01/15 08:07:58;;;;;;;8.65;4.78;;;1.80;99.90;;;;;;5060289;28;20032;-83
2024/01/15 08:10:23;;;;;;;8.73;4.35;;;1.80;99.90;;;;;;5069330;28;20020;-84
2024/01/15 08:12:49;;;;;;;10.00;5.25;;;1.80;99.90;;;;;;5062084;28;20021;-89
2024/01/15 08:15:15;;;;;;;9.20;4.50;;;1.80;99.90;;;;;;5072724;28;20031;-87
2024/01/15 08:17:40;;;;;;;10.85;4.10;;;1.80;99.90;;;;;;5073048;28;20385;-87
2024/01/15 08:20:07;;;;;;;7.20;3.95;;;1.80;99.90;;;;;;5054759;28;20040;-87
2024/01/15 08:22:32;;;;;;;7.40;3.65;;;1.80;99.90;;;;;;5060940;28;20032;-87
2024/01/15 08:24:58;;;;;;;9.40;3.00;;;1.80;99.90;;;;;;5056835;28;20107;-87
2024/01/15 08:27:24;;;;;;;7.75;2.47;;;1.80;99.90;;;;;;5051323;28;20060;-88
2024/01/15 08:29:49;;;;;;;5.50;2.28;;;1.80;99.90;;;;;;5052015;28;20394;-88
2024/01/15 08:32:15;;;;;;;5.45;2.65;;;1.80;99.90;;;;;;5057368;28;20024;-87
2024/01/15 08:34:42;;;;;;;5.82;3.17;;;1.80;99.90;;;;;;5071998;28;20021;-88
2024/01/15 08:37:08;;;;;;;8.05;3.03;;;1.90;99.90;;;;;;5073139;28;20074;-88
2024/01/15 08:39:33;;;;;;;7.68;3.20;;;1.90;99.90;;;;;;5072689;28;20489;-89
2024/01/15 08:41:59;;;;;;;6.78;2.97;;;1.80;99.90;;;;;;5058264;28;20021;-88
2024/01/15 08:44:25;;;;;;;7.63;2.78;;;1.80;99.90;;;;;;5059269;28;20020;-90
2024/01/15 08:46:51;;;;;;;10.00;3.08;;;1.80;99.90;;;;;;5069883;28;20314;-88
2024/01/15 08:49:16;;;;;;;7.43;2.60;;;1.80;99.90;;;;;;5058285;28;20050;-90
2024/01/15 08:51:42;;;;;;;7.75;2.83;;;1.80;99.90;;;;;;5063043;28;20032;-91
2024/01/15 08:54:08;;;;;;;6.75;2.58;;;1.80;99.90;;;;;;5070426;28;20035;-92
2024/01/15 08:56:34;;;;;;;9.32;2.60;;;1.80;99.90;;;;;;5073621;28;20159;-93
2024/01/15 08:58:59;;;;;;;12.25;3.22;;;1.90;99.90;;;;;;5068783;28;20131;-93
2024/01/15 09:01:25;;;;;;;13.95;3.42;;;1.80;99.90;;;;;;5072234;28;20024;-92
2024/01/15 09:03:51;;;;;;;7.15;3.15;;;1.90;99.90;;;;;;5060082;28;20091;-93
2024/01/15 09:06:17;;;;;;;10.93;3.30;;;1.90;99.90;;;;;;5073647;28;20386;-93
2024/01/15 09:08:42;;;;;;;8.70;2.97;;;1.80;99.90;;;;;;5065984;28;20024;-93
2024/01/15 09:11:08;;;;;;;11.30;3.30;;;1.90;99.90;;;;;;5071433;28;20478;-93
2024/01/15 09:13:34;;;;;;;12.60;2.90;;;1.90;99.90;;;;;;5066954;28;20385;-92
2024/01/15 09:16:00;;;;;;;11.82;3.95;;;1.90;99.90;;;;;;5070409;28;20672;-92
2024/01/15 09:18:25;;;;;;;9.85;3.70;;;1.90;99.90;;;;;;5067860;28;20396;-94
2024/01/15 09:20:51;;;;;;;18.67;4.03;;;1.90;99.90;;;;;;5068720;28;20128;-93
2024/01/15 09:23:16;;;;;;;8.07;4.30;;;1.90;99.90;;;;;;5065986;28;20127;-94
2024/01/15 09:25:42;;;;;;;7.50;4.07;;;1.90;99.90;;;;;;5062415;28;20021;-92
2024/01/15 09:28:08;;;;;;;13.35;4.10;;;1.90;99.90;;;;;;5067887;28;20091;-92
2024/01/15 09:30:33;;;;;;;10.77;3.90;;;1.90;99.90;;;;;;5058190;28;20027;-91
2024/01/15 09:32:59;;;;;;;8.30;3.00;;;2.00;99.90;;;;;;5061143;28;20445;-89
2024/01/15 09:35:25;;;;;;;7.80;3.00;;;2.00;99.90;;;;;;5065853;28;20025;-87
2024/01/15 09:37:51;;;;;;;8.93;2.60;;;2.00;99.90;;;;;;5059042;28;20052;-87
2024/01/15 09:40:17;;;;;;;6.32;2.20;;;2.00;99.90;;;;;;5069572;28;20017;-86
2024/01/15 09:42:43;;;;;;;9.60;2.63;;;2.00;99.90;;;;;;5049730;28;20386;-86
2024/01/15 09:45:09;;;;;;;8.02;2.00;;;2.10;99.90;;;;;;5063029;28;20500;-85
2024/01/15 09:47:36;;;;;;;10.32;2.15;;;2.10;99.90;;;;;;5067398;28;20420;-85
2024/01/15 09:50:03;;;;;;;8.48;1.98;;;2.10;99.90;;;;;;5058857;28;20112;-85
2024/01/15 09:52:30;;;;;;;5.88;1.63;;;2.20;99.90;;;;;;5064656;28;20028;-85
2024/01/15 09:54:58;;;;;;;8.73;1.55;;;2.20;99.90;;;;;;5050385;28;20021;-85
2024/01/15 09:57:24;;;;;;;8.77;1.52;;;2.20;99.90;;;;;;5055430;28;20021;-87
2024/01/15 09:59:51;;;;;;;4.72;1.10;;;2.10;99.90;;;;;;5059004;28;20024;-87
2024/01/15 10:02:18;;;;;;;6.38;1.30;;;2.00;99.90;;;;;;5051350;28;20104;-88
2024/01/15 10:04:44;;;;;;;10.48;1.27;;;1.90;99.90;;;;;;5050769;28;20013;-86
2024/01/15 10:07:19;;;;;;;7.93;1.33;;;1.90;99.90;;;;;;5058667;28;20107;-86
2024/01/15 10:09:46;;;;;;;5.13;0.93;;;1.80;99.90;;;;;;5060945;28;20044;-85
2024/01/15 10:12:12;;;;;;;5.15;1.27;;;1.90;99.90;;;;;;5069936;28;20028;-84
2024/01/15 10:14:37;;;;;;;6.68;1.27;;;1.90;99.90;;;;;;5054267;28;20074;-85
2024/01/15 10:17:24;;;;;;;8.10;1.27;;;2.00;99.90;;;;;;5061076;28;20021;-83
2024/01/15 10:19:50;;;;;;;4.28;1.38;;;2.10;99.90;;;;;;5064027;28;20052;-83
2024/01/15 10:22:15;;;;;;;11.25;2.33;;;2.20;99.90;;;;;;5068259;28;20082;-81
2024/01/15 10:24:41;;;;;;;6.82;1.63;;;2.30;99.90;;;;;;5058396;28;20056;-82
2024/01/15 10:27:08;;;;;;;8.07;1.80;;;2.30;99.90;;;;;;5070593;28;20051;-82
2024/01/15 10:29:35;;;;;;;6.38;1.52;;;2.30;99.90;;;;;;5069636;28;20012;-82
2024/01/15 10:32:01;;;;;;;6.90;1.90;;;2.30;99.90;;;;;;5064748;28;20104;-81
2024/01/15 10:34:26;;;;;;;7.97;1.52;;;2.30;99.90;;;;;;5050403;28;20028;-81
2024/01/15 10:36:55;;;;;;;5.60;1.75;;;2.30;99.90;;;;;;5063304;28;20433;-80
2024/01/15 10:39:24;;;;;;;9.23;2.17;;;2.40;99.90;;;;;;5067861;28;20025;-80
2024/01/15 10:41:53;;;;;;;7.40;2.63;;;2.40;99.90;;;;;;5068965;28;20652;-81
2024/01/15 10:44:19;;;;;;;12.95;4.60;;;2.40;99.90;;;;;;5057823;28;20028;-80
2024/01/15 10:46:45;;;;;;;14.63;4.95;;;2.50;99.90;;;;;;5056388;28;20021;-81
2024/01/15 10:49:14;;;;;;;10.45;5.35;;;2.60;99.90;;;;;;5056967;28;20119;-83
2024/01/15 10:51:41;;;;;;;13.98;6.05;;;2.70;99.90;;;;;;5067538;28;20033;-80
2024/01/15 10:54:10;;;;;;;10.32;5.85;;;2.70;99.90;;;;;;5069662;28;20025;-80
2024/01/15 10:56:37;;;;;;;13.85;6.68;;;2.80;99.90;;;;;;5069688;28;20469;-81
2024/01/15 10:59:03;;;;;;;13.52;6.60;;;2.80;99.90;;;;;;5063457;28;20036;-82
2024/01/15 11:01:30;;;;;;;12.88;6.25;;;2.80;99.90;;;;;;5077894;28;20494;-80
2024/01/15 11:03:59;;;;;;;10.85;5.63;;;2.80;99.90;;;;;;5066877;28;20024;-80
2024/01/15 11:06:28;;;;;;;10.85;5.68;;;2.80;99.90;;;;;;5066169;28;20027;-81
2024/01/15 11:08:55;;;;;;;10.52;4.68;;;2.80;99.90;;;;;;5067894;28;20028;-80
2024/01/15 11:11:23;;;;;;;8.50;3.97;;;2.70;99.90;;;;;;5067103;28;20085;-80
2024/01/15 11:13:52;;;;;;;8.23;3.28;;;2.70;99.90;;;;;;5069216;28;20559;-80
2024/01/15 11:16:17;;;;;;;9.73;3.53;;;2.60;99.90;;;;;;5066377;28;20017;-80
2024/01/15 11:18:58;;;;;;;10.98;3.80;;;2.60;99.90;;;;;;5051354;28;20535;-80
2024/01/15 11:21:26;;;;;;;14.65;4.20;;;2.50;99.90;;;;;;5056651;28;20482;-80
2024/01/15 11:24:02;;;;;;;11.93;3.88;;;2.50;99.90;;;;;;5067367;28;20071;-80
2024/01/15 11:26:47;;;;;;;10.57;2.97;;;2.40;99.90;;;;;;5068282;28;20303;-80
2024/01/15 11:29:27;;;;;;;14.63;3.30;;;2.40;99.90;;;;;;5053500;28;20490;-79
2024/01/15 11:32:04;;;;;;;10.25;3.70;;;2.40;99.90;;;;;;5058874;28;20043;-80
2024/01/15 11:34:53;;;;;;;9.68;2.85;;;2.40;99.90;;;;;;5066434;28;20116;-80
2024/01/15 11:37:19;;;;;;;13.20;4.35;;;2.50;99.90;;;;;;5057847;28;20041;-84
2024/01/15 11:39:48;;;;;;;10.43;3.90;;;2.50;99.90;;;;;;5061654;28;20059;-80
2024/01/15 11:42:15;;;;;;;16.92;6.40;;;2.50;99.90;;;;;;5068137;28;20128;-80
2024/01/15 11:44:41;;;;;;;12.65;4.63;;;2.50;99.90;;;;;;5064784;28;20032;-82
2024/01/15 11:47:13;;;;;;;10.18;2.47;;;2.60;99.90;;;;;;5064657;28;20032;-81
2024/01/15 11:50:06;;;;;;;9.43;2.33;;;2.60;99.90;;;;;;5066221;28;20028;-81
2024/01/15 11:52:36;;;;;;;9.63;1.92;;;2.60;99.90;;;;;;5066245;28;20085;-81
2024/01/15 11:55:10;;;;;;;8.00;1.55;;;2.60;99.90;;;;;;5066589;28;20024;-81
2024/01/15 11:57:45;;;;;;;18.33;5.38;;;2.70;99.90;;;;;;5070160;28;20489;-79
2024/01/15 12:00:12;;;;;;;15.77;4.22;;;2.70;99.90;;;;;;5063986;28;20029;-79
2024/01/15 12:02:42;;;;;;;15.38;3.53;;;2.70;99.90;;;;;;5069657;28;20090;-79
2024/01/15 12:05:12;;;;;;;10.95;2.17;;;2.70;99.90;;;;;;5065024;28;20017;-79
2024/01/15 12:07:42;;;;;;;15.05;3.15;;;2.70;99.90;;;;;;5071015;28;20037;-80
2024/01/15 12:10:13;;;;;;;14.45;4.38;;;2.80;99.90;;;;;;5067674;28;20032;-80
2024/01/15 12:13:05;;;;;;;15.75;4.40;;;3.00;99.90;;;;;;5069687;28;20024;-80
2024/01/15 12:15:31;;;;;;;10.68;1.90;;;3.20;99.90;;;;;;5057841;28;20402;-79
2024/01/15 12:17:58;;;;;;;10.18;2.15;;;3.40;99.90;;;;;;5072095;28;20021;-79
2024/01/15 12:20:25;;;;;;;8.35;2.38;;;3.60;99.90;;;;;;5062906;28;20445;-80
2024/01/15 12:22:50;;;;;;;13.30;2.75;;;3.60;99.90;;;;;;5067793;28;20424;-78
2024/01/15 12:25:16;;;;;;;13.25;2.22;;;3.80;99.90;;;;;;5062315;28;20021;-77
2024/01/15 12:27:42;;;;;;;8.48;2.13;;;3.90;99.90;;;;;;5057650;28;20028;-79
2024/01/15 12:30:11;;;;;;;7.75;1.55;;;3.90;99.90;;;;;;5055583;28;20025;-79
2024/01/15 12:32:37;;;;;;;11.85;2.35;;;4.00;99.90;;;;;;5065529;28;20037;-79
2024/01/15 12:35:04;;;;;;;7.10;1.60;;;4.00;99.90;;;;;;5056947;28;20032;-79
2024/01/15 12:37:30;;;;;;;9.35;2.08;;;4.00;99.90;;;;;;5070976;28;20021;-81
2024/01/15 12:39:55;;;;;;;6.75;1.85;;;4.00;99.90;;;;;;5070923;28;20021;-80
2024/01/15 12:42:21;;;;;;;17.50;4.85;;;4.00;99.90;;;;;;5059967;28;20025;-78
2024/01/15 12:44:47;;;;;;;11.23;2.38;;;3.90;99.90;;;;;;5056683;28;20033;-78
2024/01/15 12:47:14;;;;;;;9.00;2.05;;;3.90;99.90;;;;;;5067440;28;20027;-77
2024/01/15 12:49:39;;;;;;;8.88;2.08;;;3.70;99.90;;;;;;5061619;28;20482;-76